sensor_id;sensor_type;location;lat;lon;timestamp;pressure;altitude;pressure_sealevel;temperature;humidity
70127;BME280;57491;42.694;23.314;2023-05-29T00:01:26;94924.09;;;16.19;71.65
70127;BME280;57491;42.694;23.314;2023-05-29T00:03:53;94927.91;;;16.23;71.21
70127;BME280;57491;42.694;23.314;2023-05-29T00:06:20;94931.97;;;16.19;71.35
70127;BME280;57491;42.694;23.314;2023-05-29T00:08:47;94931.22;;;16.12;71.76
70127;BME280;57491;42.694;23.314;2023-05-29T00:11:14;94928.38;;;16.14;72.02
70127;BME280;57491;42.694;23.314;2023-05-29T00:13:41;94937.22;;;16.19;71.63
70127;BME280;57491;42.694;23.314;2023-05-29T00:16:09;94924.16;;;16.13;71.88
70127;BME280;57491;42.694;23.314;2023-05-29T00:18:36;94934.06;;;16.11;71.97
70127;BME280;57491;42.694;23.314;2023-05-29T00:21:11;94930.03;;;16.08;71.77
70127;BME280;57491;42.694;23.314;2023-05-29T00:23:38;94928.03;;;16.10;71.66
70127;BME280;57491;42.694;23.314;2023-05-29T00:26:05;94932.91;;;16.06;72.04
70127;BME280;57491;42.694;23.314;2023-05-29T00:28:33;94935.13;;;16.03;72.09
70127;BME280;57491;42.694;23.314;2023-05-29T00:31:00;94941.06;;;15.98;72.15
70127;BME280;57491;42.694;23.314;2023-05-29T00:33:29;94935.38;;;16.01;72.61
70127;BME280;57491;42.694;23.314;2023-05-29T00:35:56;94930.13;;;16.01;72.29
70127;BME280;57491;42.694;23.314;2023-05-29T00:38:23;94930.94;;;16.02;72.11
70127;BME280;57491;42.694;23.314;2023-05-29T00:40:50;94917.66;;;15.97;72.42
70127;BME280;57491;42.694;23.314;2023-05-29T00:43:17;94923.91;;;15.96;72.21
70127;BME280;57491;42.694;23.314;2023-05-29T00:45:44;94921.72;;;15.93;72.22
70127;BME280;57491;42.694;23.314;2023-05-29T00:48:12;94936.69;;;15.86;72.43
70127;BME280;57491;42.694;23.314;2023-05-29T00:50:40;94924.63;;;15.85;72.62
70127;BME280;57491;42.694;23.314;2023-05-29T00:53:08;94926.03;;;15.81;72.64
70127;BME280;57491;42.694;23.314;2023-05-29T00:55:35;94919.88;;;15.75;73.09
70127;BME280;57491;42.694;23.314;2023-05-29T00:58:02;94926.97;;;15.68;73.06
70127;BME280;57491;42.694;23.314;2023-05-29T01:00:31;94917.72;;;15.66;73.45
70127;BME280;57491;42.694;23.314;2023-05-29T01:02:59;94918.94;;;15.63;73.35
70127;BME280;57491;42.694;23.314;2023-05-29T01:05:28;94920.72;;;15.69;73.30
70127;BME280;57491;42.694;23.314;2023-05-29T01:07:57;94917.88;;;15.71;73.43
70127;BME280;57491;42.694;23.314;2023-05-29T01:10:24;94923.16;;;15.64;73.96
70127;BME280;57491;42.694;23.314;2023-05-29T01:12:53;94921.63;;;15.56;74.03
70127;BME280;57491;42.694;23.314;2023-05-29T01:15:31;94912.50;;;15.59;74.29
70127;BME280;57491;42.694;23.314;2023-05-29T01:18:08;94928.25;;;15.59;74.24
70127;BME280;57491;42.694;23.314;2023-05-29T01:20:42;94926.00;;;15.62;74.05
70127;BME280;57491;42.694;23.314;2023-05-29T01:26:11;94931.22;;;15.62;74.33
70127;BME280;57491;42.694;23.314;2023-05-29T01:28:52;94932.28;;;15.61;74.19
70127;BME280;57491;42.694;23.314;2023-05-29T01:31:25;94930.06;;;15.58;75.04
70127;BME280;57491;42.694;23.314;2023-05-29T01:33:53;94936.91;;;15.59;74.87
70127;BME280;57491;42.694;23.314;2023-05-29T01:36:21;94934.50;;;15.58;74.08
70127;BME280;57491;42.694;23.314;2023-05-29T01:38:48;94927.44;;;15.58;73.82
70127;BME280;57491;42.694;23.314;2023-05-29T01:41:16;94925.84;;;15.57;73.84
70127;BME280;57491;42.694;23.314;2023-05-29T01:43:44;94922.78;;;15.60;74.33
70127;BME280;57491;42.694;23.314;2023-05-29T01:46:14;94912.75;;;15.57;74.15
70127;BME280;57491;42.694;23.314;2023-05-29T01:48:41;94931.03;;;15.64;74.00
70127;BME280;57491;42.694;23.314;2023-05-29T01:51:08;94932.19;;;15.68;73.87
70127;BME280;57491;42.694;23.314;2023-05-29T01:53:36;94919.09;;;15.68;73.55
70127;BME280;57491;42.694;23.314;2023-05-29T01:56:04;94915.91;;;15.66;73.17
70127;BME280;57491;42.694;23.314;2023-05-29T01:58:32;94907.53;;;15.51;73.01
70127;BME280;57491;42.694;23.314;2023-05-29T02:01:00;94911.22;;;15.43;73.39
70127;BME280;57491;42.694;23.314;2023-05-29T02:03:30;94920.16;;;15.29;73.89
70127;BME280;57491;42.694;23.314;2023-05-29T02:05:58;94910.19;;;15.13;74.26
70127;BME280;57491;42.694;23.314;2023-05-29T02:08:26;94927.94;;;15.11;74.64
70127;BME280;57491;42.694;23.314;2023-05-29T02:10:53;94914.63;;;15.12;74.88
70127;BME280;57491;42.694;23.314;2023-05-29T02:13:20;94914.00;;;15.17;74.80
70127;BME280;57491;42.694;23.314;2023-05-29T02:15:47;94910.16;;;15.19;74.70
70127;BME280;57491;42.694;23.314;2023-05-29T02:18:15;94903.13;;;15.13;74.82
70127;BME280;57491;42.694;23.314;2023-05-29T02:20:46;94906.16;;;15.17;75.37
70127;BME280;57491;42.694;23.314;2023-05-29T02:23:12;94915.34;;;15.26;75.52
70127;BME280;57491;42.694;23.314;2023-05-29T02:25:41;94912.50;;;15.28;75.67
70127;BME280;57491;42.694;23.314;2023-05-29T02:28:08;94912.47;;;15.34;76.00
70127;BME280;57491;42.694;23.314;2023-05-29T02:30:35;94912.25;;;15.36;75.36
70127;BME280;57491;42.694;23.314;2023-05-29T02:33:03;94920.06;;;15.42;75.77
70127;BME280;57491;42.694;23.314;2023-05-29T02:35:31;94923.66;;;15.48;75.93
70127;BME280;57491;42.694;23.314;2023-05-29T02:38:00;94922.88;;;15.47;75.58
70127;BME280;57491;42.694;23.314;2023-05-29T02:40:27;94920.81;;;15.49;74.83
70127;BME280;57491;42.694;23.314;2023-05-29T02:42:54;94928.31;;;15.46;74.28
70127;BME280;57491;42.694;23.314;2023-05-29T02:45:21;94924.88;;;15.45;74.13
70127;BME280;57491;42.694;23.314;2023-05-29T02:47:48;94932.75;;;15.45;74.58
70127;BME280;57491;42.694;23.314;2023-05-29T02:50:15;94932.38;;;15.42;74.82
70127;BME280;57491;42.694;23.314;2023-05-29T02:52:42;94921.44;;;15.45;74.88
70127;BME280;57491;42.694;23.314;2023-05-29T02:55:10;94918.44;;;15.48;75.40
70127;BME280;57491;42.694;23.314;2023-05-29T02:57:37;94920.44;;;15.52;74.81
70127;BME280;57491;42.694;23.314;2023-05-29T03:00:05;94920.44;;;15.52;74.97
70127;BME280;57491;42.694;23.314;2023-05-29T03:02:33;94922.25;;;15.52;74.63
70127;BME280;57491;42.694;23.314;2023-05-29T03:05:01;94921.81;;;15.55;73.84
70127;BME280;57491;42.694;23.314;2023-05-29T03:07:28;94920.66;;;15.51;73.82
70127;BME280;57491;42.694;23.314;2023-05-29T03:09:55;94923.25;;;15.51;73.95
70127;BME280;57491;42.694;23.314;2023-05-29T03:12:23;94925.44;;;15.54;73.70
70127;BME280;57491;42.694;23.314;2023-05-29T03:14:50;94926.44;;;15.59;73.70
70127;BME280;57491;42.694;23.314;2023-05-29T03:17:18;94928.41;;;15.64;73.65
70127;BME280;57491;42.694;23.314;2023-05-29T03:19:46;94922.00;;;15.60;73.87
70127;BME280;57491;42.694;23.314;2023-05-29T03:22:13;94930.38;;;15.69;73.95
70127;BME280;57491;42.694;23.314;2023-05-29T03:24:40;94925.91;;;15.76;73.66
70127;BME280;57491;42.694;23.314;2023-05-29T03:27:07;94924.06;;;15.76;73.82
70127;BME280;57491;42.694;23.314;2023-05-29T03:29:35;94931.44;;;15.86;73.16
70127;BME280;57491;42.694;23.314;2023-05-29T03:32:02;94937.88;;;15.90;72.81
70127;BME280;57491;42.694;23.314;2023-05-29T03:34:30;94933.88;;;15.87;73.01
70127;BME280;57491;42.694;23.314;2023-05-29T03:36:57;94944.88;;;15.96;72.60
70127;BME280;57491;42.694;23.314;2023-05-29T03:39:24;94941.81;;;15.99;72.29
70127;BME280;57491;42.694;23.314;2023-05-29T03:41:51;94949.44;;;16.07;72.67
70127;BME280;57491;42.694;23.314;2023-05-29T03:44:18;94956.22;;;16.15;71.93
70127;BME280;57491;42.694;23.314;2023-05-29T03:46:47;94953.41;;;16.16;71.36
70127;BME280;57491;42.694;23.314;2023-05-29T03:49:14;94958.69;;;16.10;71.83
70127;BME280;57491;42.694;23.314;2023-05-29T03:51:41;94954.72;;;16.00;72.35
70127;BME280;57491;42.694;23.314;2023-05-29T03:54:08;94954.69;;;16.07;72.62
70127;BME280;57491;42.694;23.314;2023-05-29T03:56:35;94956.59;;;16.18;71.80
70127;BME280;57491;42.694;23.314;2023-05-29T03:59:02;94956.53;;;16.25;72.04
70127;BME280;57491;42.694;23.314;2023-05-29T04:01:29;94963.59;;;16.24;71.63
70127;BME280;57491;42.694;23.314;2023-05-29T04:03:58;94957.72;;;16.29;71.46
70127;BME280;57491;42.694;23.314;2023-05-29T04:06:25;94957.63;;;16.35;71.60
70127;BME280;57491;42.694;23.314;2023-05-29T04:08:52;94968.44;;;16.45;72.08
70127;BME280;57491;42.694;23.314;2023-05-29T04:11:19;94975.00;;;16.55;71.39
70127;BME280;57491;42.694;23.314;2023-05-29T04:13:47;94974.75;;;16.63;71.06
70127;BME280;57491;42.694;23.314;2023-05-29T04:16:15;94977.06;;;16.71;70.20
70127;BME280;57491;42.694;23.314;2023-05-29T04:18:42;94969.78;;;16.73;69.75
70127;BME280;57491;42.694;23.314;2023-05-29T04:21:10;94978.97;;;16.82;70.11
70127;BME280;57491;42.694;23.314;2023-05-29T04:23:38;94977.66;;;16.91;70.32
70127;BME280;57491;42.694;23.314;2023-05-29T04:26:05;94973.94;;;16.99;70.13
70127;BME280;57491;42.694;23.314;2023-05-29T04:28:32;94967.94;;;17.10;69.75
70127;BME280;57491;42.694;23.314;2023-05-29T04:30:59;94965.47;;;17.15;69.88
70127;BME280;57491;42.694;23.314;2023-05-29T04:33:26;94974.84;;;17.22;69.65
70127;BME280;57491;42.694;23.314;2023-05-29T04:35:54;94970.31;;;17.29;69.27
70127;BME280;57491;42.694;23.314;2023-05-29T04:38:22;94975.69;;;17.34;68.82
70127;BME280;57491;42.694;23.314;2023-05-29T04:40:51;94976.19;;;17.43;69.24
70127;BME280;57491;42.694;23.314;2023-05-29T04:43:18;94979.28;;;17.52;68.87
70127;BME280;57491;42.694;23.314;2023-05-29T04:45:45;94986.28;;;17.58;68.84
70127;BME280;57491;42.694;23.314;2023-05-29T04:48:14;94980.41;;;17.62;68.34
70127;BME280;57491;42.694;23.314;2023-05-29T04:50:41;94977.91;;;17.67;68.08
70127;BME280;57491;42.694;23.314;2023-05-29T04:53:10;94991.41;;;17.71;67.88
70127;BME280;57491;42.694;23.314;2023-05-29T04:55:38;94986.25;;;17.76;67.67
70127;BME280;57491;42.694;23.314;2023-05-29T04:58:05;94989.56;;;17.71;67.94
70127;BME280;57491;42.694;23.314;2023-05-29T05:00:33;94999.00;;;17.61;67.40
70127;BME280;57491;42.694;23.314;2023-05-29T05:03:00;95003.97;;;17.69;67.99
70127;BME280;57491;42.694;23.314;2023-05-29T05:05:28;95006.28;;;17.77;67.59
70127;BME280;57491;42.694;23.314;2023-05-29T05:07:55;95003.44;;;17.90;67.41
70127;BME280;57491;42.694;23.314;2023-05-29T05:10:22;95015.03;;;18.01;66.33
70127;BME280;57491;42.694;23.314;2023-05-29T05:12:50;95004.13;;;17.97;66.07
70127;BME280;57491;42.694;23.314;2023-05-29T05:15:17;95011.25;;;18.08;66.44
70127;BME280;57491;42.694;23.314;2023-05-29T05:17:44;95018.03;;;18.16;66.59
70127;BME280;57491;42.694;23.314;2023-05-29T05:20:12;95019.53;;;18.23;65.49
70127;BME280;57491;42.694;23.314;2023-05-29T05:22:39;95017.94;;;18.34;66.02
70127;BME280;57491;42.694;23.314;2023-05-29T05:25:07;95018.28;;;18.49;65.99
70127;BME280;57491;42.694;23.314;2023-05-29T05:27:33;95020.81;;;18.56;65.27
70127;BME280;57491;42.694;23.314;2023-05-29T05:30:02;95017.75;;;18.59;65.25
70127;BME280;57491;42.694;23.314;2023-05-29T05:32:29;95017.28;;;18.62;64.62
70127;BME280;57491;42.694;23.314;2023-05-29T05:34:56;95028.47;;;18.69;65.14
70127;BME280;57491;42.694;23.314;2023-05-29T05:37:24;95021.75;;;18.73;64.99
70127;BME280;57491;42.694;23.314;2023-05-29T05:39:51;95016.47;;;18.73;64.13
70127;BME280;57491;42.694;23.314;2023-05-29T05:42:19;95024.22;;;18.91;64.13
70127;BME280;57491;42.694;23.314;2023-05-29T05:44:46;95026.13;;;19.19;63.28
70127;BME280;57491;42.694;23.314;2023-05-29T05:47:14;95020.59;;;19.44;62.01
70127;BME280;57491;42.694;23.314;2023-05-29T05:49:41;95023.06;;;19.62;61.56
70127;BME280;57491;42.694;23.314;2023-05-29T05:52:09;95020.34;;;19.74;61.24
70127;BME280;57491;42.694;23.314;2023-05-29T05:54:36;95023.91;;;19.96;60.63
70127;BME280;57491;42.694;23.314;2023-05-29T05:57:03;95019.13;;;20.10;58.95
70127;BME280;57491;42.694;23.314;2023-05-29T05:59:31;95017.84;;;20.12;59.35
70127;BME280;57491;42.694;23.314;2023-05-29T06:01:58;95026.63;;;20.18;58.36
70127;BME280;57491;42.694;23.314;2023-05-29T06:04:27;95019.16;;;20.43;58.43
70127;BME280;57491;42.694;23.314;2023-05-29T06:06:54;95020.94;;;20.76;57.05
70127;BME280;57491;42.694;23.314;2023-05-29T06:09:21;95019.47;;;21.02;56.53
70127;BME280;57491;42.694;23.314;2023-05-29T06:11:48;95015.31;;;21.27;55.90
70127;BME280;57491;42.694;23.314;2023-05-29T06:14:15;95006.78;;;21.42;55.54
70127;BME280;57491;42.694;23.314;2023-05-29T06:16:42;95019.00;;;21.75;55.64
70127;BME280;57491;42.694;23.314;2023-05-29T06:19:09;95020.88;;;21.96;53.24
70127;BME280;57491;42.694;23.314;2023-05-29T06:21:38;95025.78;;;22.14;52.32
70127;BME280;57491;42.694;23.314;2023-05-29T06:24:05;95026.09;;;22.18;51.53
70127;BME280;57491;42.694;23.314;2023-05-29T06:26:33;95034.50;;;22.10;52.06
70127;BME280;57491;42.694;23.314;2023-05-29T06:29:00;95033.81;;;21.93;52.71
70127;BME280;57491;42.694;23.314;2023-05-29T06:31:27;95036.47;;;21.98;52.40
70127;BME280;57491;42.694;23.314;2023-05-29T06:33:54;95027.69;;;22.19;52.48
70127;BME280;57491;42.694;23.314;2023-05-29T06:36:22;95022.34;;;22.46;50.93
70127;BME280;57491;42.694;23.314;2023-05-29T06:38:51;95025.75;;;22.41;51.80
70127;BME280;57491;42.694;23.314;2023-05-29T06:41:18;95024.72;;;22.47;51.72
70127;BME280;57491;42.694;23.314;2023-05-29T06:43:45;95027.50;;;22.62;51.01
70127;BME280;57491;42.694;23.314;2023-05-29T06:46:12;95028.66;;;22.40;51.42
70127;BME280;57491;42.694;23.314;2023-05-29T06:48:39;95029.81;;;22.54;52.27
70127;BME280;57491;42.694;23.314;2023-05-29T06:51:07;95024.66;;;22.74;51.76
70127;BME280;57491;42.694;23.314;2023-05-29T06:53:37;95034.66;;;22.99;50.65
70127;BME280;57491;42.694;23.314;2023-05-29T06:56:05;95025.69;;;23.15;50.34
70127;BME280;57491;42.694;23.314;2023-05-29T06:58:33;95031.31;;;23.19;49.96
70127;BME280;57491;42.694;23.314;2023-05-29T07:01:00;95026.34;;;23.42;49.61
70127;BME280;57491;42.694;23.314;2023-05-29T07:03:27;95028.06;;;23.74;49.69
70127;BME280;57491;42.694;23.314;2023-05-29T07:05:54;95022.28;;;23.97;49.39
70127;BME280;57491;42.694;23.314;2023-05-29T07:08:22;95021.81;;;24.25;48.41
70127;BME280;57491;42.694;23.314;2023-05-29T07:10:49;95029.78;;;24.25;47.84
70127;BME280;57491;42.694;23.314;2023-05-29T07:13:18;95030.88;;;24.34;46.40
70127;BME280;57491;42.694;23.314;2023-05-29T07:15:45;95026.06;;;24.41;46.18
70127;BME280;57491;42.694;23.314;2023-05-29T07:18:12;95032.47;;;24.35;46.33
70127;BME280;57491;42.694;23.314;2023-05-29T07:20:39;95023.41;;;24.41;46.48
70127;BME280;57491;42.694;23.314;2023-05-29T07:23:06;95024.22;;;24.42;45.15
70127;BME280;57491;42.694;23.314;2023-05-29T07:25:33;95034.56;;;24.18;45.90
70127;BME280;57491;42.694;23.314;2023-05-29T07:28:00;95027.09;;;24.00;47.03
70127;BME280;57491;42.694;23.314;2023-05-29T07:30:29;95026.25;;;23.84;47.58
70127;BME280;57491;42.694;23.314;2023-05-29T07:32:56;95027.50;;;23.56;47.20
70127;BME280;57491;42.694;23.314;2023-05-29T07:35:23;95024.31;;;23.54;48.10
70127;BME280;57491;42.694;23.314;2023-05-29T07:37:51;95027.75;;;23.55;47.73
70127;BME280;57491;42.694;23.314;2023-05-29T07:40:19;95028.00;;;23.48;47.99
70127;BME280;57491;42.694;23.314;2023-05-29T07:42:46;95025.00;;;23.35;48.05
70127;BME280;57491;42.694;23.314;2023-05-29T07:45:13;95032.69;;;23.31;48.36
70127;BME280;57491;42.694;23.314;2023-05-29T07:47:42;95025.00;;;23.35;47.29
70127;BME280;57491;42.694;23.314;2023-05-29T07:50:09;95024.78;;;23.41;47.77
70127;BME280;57491;42.694;23.314;2023-05-29T07:52:37;95017.94;;;23.50;47.82
70127;BME280;57491;42.694;23.314;2023-05-29T07:55:04;95017.66;;;23.47;48.69
70127;BME280;57491;42.694;23.314;2023-05-29T07:57:31;95014.25;;;23.67;47.89
70127;BME280;57491;42.694;23.314;2023-05-29T07:59:58;95021.22;;;23.88;47.10
70127;BME280;57491;42.694;23.314;2023-05-29T08:02:25;95018.06;;;24.11;46.39
70127;BME280;57491;42.694;23.314;2023-05-29T08:04:54;95016.50;;;24.51;46.23
70127;BME280;57491;42.694;23.314;2023-05-29T08:07:21;95016.75;;;24.54;45.53
70127;BME280;57491;42.694;23.314;2023-05-29T08:09:48;95011.97;;;24.41;43.73
70127;BME280;57491;42.694;23.314;2023-05-29T08:12:16;95014.13;;;24.34;44.65
70127;BME280;57491;42.694;23.314;2023-05-29T08:14:43;95019.97;;;24.36;44.79
70127;BME280;57491;42.694;23.314;2023-05-29T08:17:10;95020.78;;;24.26;44.75
70127;BME280;57491;42.694;23.314;2023-05-29T08:19:37;95027.94;;;24.26;44.88
70127;BME280;57491;42.694;23.314;2023-05-29T08:22:05;95022.63;;;24.21;45.20
70127;BME280;57491;42.694;23.314;2023-05-29T08:24:32;95024.47;;;24.20;45.77
70127;BME280;57491;42.694;23.314;2023-05-29T08:26:59;95030.34;;;24.22;46.00
70127;BME280;57491;42.694;23.314;2023-05-29T08:29:26;95016.50;;;24.56;45.21
70127;BME280;57491;42.694;23.314;2023-05-29T08:31:53;95029.50;;;24.98;44.97
70127;BME280;57491;42.694;23.314;2023-05-29T08:34:20;95021.59;;;25.52;44.38
70127;BME280;57491;42.694;23.314;2023-05-29T08:36:47;95019.78;;;26.01;42.91
70127;BME280;57491;42.694;23.314;2023-05-29T08:39:17;95020.28;;;26.47;41.44
70127;BME280;57491;42.694;23.314;2023-05-29T08:41:51;95016.91;;;26.66;39.38
70127;BME280;57491;42.694;23.314;2023-05-29T08:44:21;95019.81;;;26.69;38.40
70127;BME280;57491;42.694;23.314;2023-05-29T08:46:54;95009.28;;;26.83;38.08
70127;BME280;57491;42.694;23.314;2023-05-29T08:49:22;95002.56;;;26.90;37.21
70127;BME280;57491;42.694;23.314;2023-05-29T08:51:55;95005.28;;;26.80;37.14
70127;BME280;57491;42.694;23.314;2023-05-29T08:54:25;95000.53;;;26.77;37.54
70127;BME280;57491;42.694;23.314;2023-05-29T08:56:53;95005.31;;;26.75;38.08
70127;BME280;57491;42.694;23.314;2023-05-29T08:59:20;94997.50;;;27.13;37.33
70127;BME280;57491;42.694;23.314;2023-05-29T09:01:48;95002.84;;;27.13;35.95
70127;BME280;57491;42.694;23.314;2023-05-29T09:04:15;94994.22;;;26.97;36.65
70127;BME280;57491;42.694;23.314;2023-05-29T09:06:42;95001.09;;;26.74;36.71
70127;BME280;57491;42.694;23.314;2023-05-29T09:09:11;94990.16;;;26.71;36.44
70127;BME280;57491;42.694;23.314;2023-05-29T09:11:39;94995.31;;;26.62;36.96
70127;BME280;57491;42.694;23.314;2023-05-29T09:14:11;94984.38;;;26.63;36.88
70127;BME280;57491;42.694;23.314;2023-05-29T09:16:41;94990.06;;;26.81;37.36
70127;BME280;57491;42.694;23.314;2023-05-29T09:19:08;94985.81;;;27.08;35.83
70127;BME280;57491;42.694;23.314;2023-05-29T09:21:35;94976.16;;;26.89;35.88
70127;BME280;57491;42.694;23.314;2023-05-29T09:24:04;94974.19;;;26.42;36.87
70127;BME280;57491;42.694;23.314;2023-05-29T09:26:31;94970.66;;;26.12;37.80
70127;BME280;57491;42.694;23.314;2023-05-29T09:29:00;94965.41;;;26.02;37.49
70127;BME280;57491;42.694;23.314;2023-05-29T09:31:28;94960.22;;;25.82;38.23
70127;BME280;57491;42.694;23.314;2023-05-29T09:34:01;94960.88;;;25.64;38.77
70127;BME280;57491;42.694;23.314;2023-05-29T09:36:28;94964.13;;;25.46;39.60
70127;BME280;57491;42.694;23.314;2023-05-29T09:38:56;94966.81;;;25.41;40.44
70127;BME280;57491;42.694;23.314;2023-05-29T09:41:23;94956.66;;;25.53;39.36
70127;BME280;57491;42.694;23.314;2023-05-29T09:43:51;94952.41;;;25.96;38.47
70127;BME280;57491;42.694;23.314;2023-05-29T09:46:20;94948.81;;;26.73;37.09
70127;BME280;57491;42.694;23.314;2023-05-29T09:48:48;94954.59;;;26.85;36.84
70127;BME280;57491;42.694;23.314;2023-05-29T09:51:22;94948.13;;;27.15;36.09
70127;BME280;57491;42.694;23.314;2023-05-29T09:53:49;94942.31;;;27.32;35.55
70127;BME280;57491;42.694;23.314;2023-05-29T09:56:22;94943.00;;;27.19;35.99
70127;BME280;57491;42.694;23.314;2023-05-29T09:58:51;94940.06;;;26.96;36.42
70127;BME280;57491;42.694;23.314;2023-05-29T10:01:17;94939.03;;;26.92;37.33
70127;BME280;57491;42.694;23.314;2023-05-29T10:03:46;94927.38;;;26.83;37.15
70127;BME280;57491;42.694;23.314;2023-05-29T10:06:16;94929.00;;;27.27;35.70
70127;BME280;57491;42.694;23.314;2023-05-29T10:08:46;94937.22;;;27.91;34.48
70127;BME280;57491;42.694;23.314;2023-05-29T10:11:17;94928.47;;;28.37;34.36
70127;BME280;57491;42.694;23.314;2023-05-29T10:13:51;94933.25;;;29.00;33.81
70127;BME280;57491;42.694;23.314;2023-05-29T10:16:20;94931.34;;;29.41;32.36
70127;BME280;57491;42.694;23.314;2023-05-29T10:18:51;94927.97;;;29.63;31.13
70127;BME280;57491;42.694;23.314;2023-05-29T10:21:21;94938.00;;;29.44;32.28
70127;BME280;57491;42.694;23.314;2023-05-29T10:23:50;94931.22;;;29.60;31.62
70127;BME280;57491;42.694;23.314;2023-05-29T10:26:20;94919.38;;;29.75;30.27
70127;BME280;57491;42.694;23.314;2023-05-29T10:28:54;94921.44;;;29.78;30.50
70127;BME280;57491;42.694;23.314;2023-05-29T10:31:28;94928.56;;;29.46;30.34
70127;BME280;57491;42.694;23.314;2023-05-29T10:34:07;94922.59;;;29.63;30.14
70127;BME280;57491;42.694;23.314;2023-05-29T10:36:40;94917.59;;;29.34;30.36
70127;BME280;57491;42.694;23.314;2023-05-29T10:39:08;94916.31;;;29.67;29.48
70127;BME280;57491;42.694;23.314;2023-05-29T10:41:35;94908.78;;;30.36;30.02
70127;BME280;57491;42.694;23.314;2023-05-29T10:44:38;94911.72;;;30.26;29.23
70127;BME280;57491;42.694;23.314;2023-05-29T10:47:08;94907.56;;;29.76;29.13
70127;BME280;57491;42.694;23.314;2023-05-29T10:49:39;94917.28;;;29.08;30.57
70127;BME280;57491;42.694;23.314;2023-05-29T10:52:18;94906.81;;;28.38;31.76
70127;BME280;57491;42.694;23.314;2023-05-29T10:54:53;94904.22;;;27.82;32.03
70127;BME280;57491;42.694;23.314;2023-05-29T10:57:23;94905.41;;;27.15;33.45
70127;BME280;57491;42.694;23.314;2023-05-29T10:59:58;94906.53;;;26.61;34.45
70127;BME280;57491;42.694;23.314;2023-05-29T11:02:26;94889.28;;;26.54;34.57
70127;BME280;57491;42.694;23.314;2023-05-29T11:05:18;94897.34;;;26.73;33.96
70127;BME280;57491;42.694;23.314;2023-05-29T11:07:53;94894.34;;;26.55;33.88
70127;BME280;57491;42.694;23.314;2023-05-29T11:10:44;94881.91;;;26.70;34.54
70127;BME280;57491;42.694;23.314;2023-05-29T11:13:23;94879.09;;;26.61;34.48
70127;BME280;57491;42.694;23.314;2023-05-29T11:16:19;94879.72;;;26.48;34.74
70127;BME280;57491;42.694;23.314;2023-05-29T11:18:47;94882.56;;;26.85;34.25
70127;BME280;57491;42.694;23.314;2023-05-29T11:21:22;94882.00;;;27.07;33.71
70127;BME280;57491;42.694;23.314;2023-05-29T11:23:51;94875.69;;;26.79;34.48
70127;BME280;57491;42.694;23.314;2023-05-29T11:26:20;94875.91;;;26.59;34.65
70127;BME280;57491;42.694;23.314;2023-05-29T11:28:47;94879.16;;;26.27;35.05
70127;BME280;57491;42.694;23.314;2023-05-29T11:31:15;94873.34;;;26.20;35.80
70127;BME280;57491;42.694;23.314;2023-05-29T11:33:47;94874.19;;;26.44;35.83
70127;BME280;57491;42.694;23.314;2023-05-29T11:36:17;94883.69;;;27.22;34.12
70127;BME280;57491;42.694;23.314;2023-05-29T11:38:44;94879.75;;;27.19;33.53
70127;BME280;57491;42.694;23.314;2023-05-29T11:41:11;94876.41;;;27.08;33.48
70127;BME280;57491;42.694;23.314;2023-05-29T11:43:39;94867.00;;;27.54;33.73
70127;BME280;57491;42.694;23.314;2023-05-29T11:46:24;94863.59;;;27.67;32.33
70127;BME280;57491;42.694;23.314;2023-05-29T11:48:52;94861.34;;;28.38;32.03
70127;BME280;57491;42.694;23.314;2023-05-29T11:51:20;94861.72;;;28.00;32.25
70127;BME280;57491;42.694;23.314;2023-05-29T11:53:48;94863.16;;;27.22;33.56
70127;BME280;57491;42.694;23.314;2023-05-29T11:56:18;94876.28;;;26.71;33.84
70127;BME280;57491;42.694;23.314;2023-05-29T11:58:46;94863.16;;;26.27;34.99
70127;BME280;57491;42.694;23.314;2023-05-29T12:01:16;94868.00;;;25.91;35.82
70127;BME280;57491;42.694;23.314;2023-05-29T12:03:45;94859.22;;;25.52;36.81
70127;BME280;57491;42.694;23.314;2023-05-29T12:06:12;94858.41;;;25.12;38.29
70127;BME280;57491;42.694;23.314;2023-05-29T12:08:40;94862.50;;;24.95;39.76
70127;BME280;57491;42.694;23.314;2023-05-29T12:11:07;94885.03;;;24.18;43.15
70127;BME280;57491;42.694;23.314;2023-05-29T12:13:35;94879.38;;;23.43;45.44
70127;BME280;57491;42.694;23.314;2023-05-29T12:16:04;94896.03;;;23.29;47.46
70127;BME280;57491;42.694;23.314;2023-05-29T12:18:32;94915.75;;;22.76;54.97
70127;BME280;57491;42.694;23.314;2023-05-29T12:21:00;94915.44;;;22.25;62.83
70127;BME280;57491;42.694;23.314;2023-05-29T12:23:28;94919.88;;;21.83;59.93
70127;BME280;57491;42.694;23.314;2023-05-29T12:25:57;94925.53;;;21.64;65.93
70127;BME280;57491;42.694;23.314;2023-05-29T12:28:25;94922.94;;;21.43;66.40
70127;BME280;57491;42.694;23.314;2023-05-29T12:30:58;94927.72;;;21.46;68.58
70127;BME280;57491;42.694;23.314;2023-05-29T12:33:28;94928.91;;;21.33;64.30
70127;BME280;57491;42.694;23.314;2023-05-29T12:36:01;94939.16;;;21.08;57.88
70127;BME280;57491;42.694;23.314;2023-05-29T12:38:28;94935.66;;;20.80;59.46
70127;BME280;57491;42.694;23.314;2023-05-29T12:40:57;94947.44;;;20.18;58.09
70127;BME280;57491;42.694;23.314;2023-05-29T12:43:24;94942.19;;;19.68;60.83
70127;BME280;57491;42.694;23.314;2023-05-29T12:45:54;94933.47;;;19.39;61.45
70127;BME280;57491;42.694;23.314;2023-05-29T12:48:26;94931.81;;;19.21;61.13
70127;BME280;57491;42.694;23.314;2023-05-29T12:50:53;94926.66;;;19.26;62.66
70127;BME280;57491;42.694;23.314;2023-05-29T12:53:21;94923.44;;;19.52;66.29
70127;BME280;57491;42.694;23.314;2023-05-29T12:55:48;94920.09;;;19.74;64.78
70127;BME280;57491;42.694;23.314;2023-05-29T12:58:16;94916.28;;;19.98;65.27
70127;BME280;57491;42.694;23.314;2023-05-29T13:00:45;94932.75;;;20.22;68.75